createdAt,value
2019-03-30T00:00:58.102Z,61.73
2019-03-30T00:03:30.470Z,68.20
2019-03-30T00:06:02.450Z,62.93
2019-03-30T00:08:34.494Z,59.50
2019-03-30T00:11:06.532Z,56.30
2019-03-30T00:13:38.964Z,50.70
2019-03-30T00:16:11.195Z,52.87
2019-03-30T00:18:43.180Z,56.00
2019-03-30T00:21:15.289Z,56.10
2019-03-30T00:23:47.311Z,54.33
2019-03-30T00:26:19.394Z,54.33
2019-03-30T00:28:51.488Z,55.20
2019-03-30T00:31:23.492Z,57.87
2019-03-30T00:33:55.609Z,54.47
2019-03-30T00:36:32.240Z,53.07
2019-03-30T00:39:06.215Z,57.33
2019-03-30T00:41:38.201Z,59.83
2019-03-30T00:44:10.289Z,54.20
2019-03-30T00:46:42.232Z,56.43
2019-03-30T00:49:14.278Z,55.60
2019-03-30T00:51:46.266Z,53.53
2019-03-30T00:54:18.340Z,53.50
2019-03-30T00:56:50.303Z,50.00
2019-03-30T00:59:22.365Z,49.10
2019-03-30T01:01:54.631Z,53.27
2019-03-30T01:04:26.640Z,55.63
2019-03-30T01:06:59.492Z,53.03
2019-03-30T01:09:32.883Z,53.27
2019-03-30T01:12:04.962Z,58.00
2019-03-30T01:14:38.787Z,58.07
2019-03-30T01:17:11.048Z,53.80
2019-03-30T01:19:43.037Z,57.40
2019-03-30T01:22:14.998Z,56.73
2019-03-30T01:24:47.207Z,57.10
2019-03-30T01:27:19.173Z,57.83
2019-03-30T01:29:51.476Z,57.63
2019-03-30T01:32:23.566Z,67.87
2019-03-30T01:34:55.525Z,63.60
2019-03-30T01:37:28.568Z,64.57
2019-03-30T01:40:01.378Z,58.83
2019-03-30T01:42:33.370Z,60.20
2019-03-30T01:45:08.701Z,61.40
2019-03-30T01:47:40.982Z,57.17
2019-03-30T01:50:17.500Z,62.27
2019-03-30T01:52:48.524Z,54.80
2019-03-30T01:55:21.242Z,61.97
2019-03-30T01:57:54.057Z,66.53
2019-03-30T02:00:26.946Z,65.83
2019-03-30T02:02:59.013Z,62.33
2019-03-30T02:05:31.040Z,64.27
2019-03-30T02:08:03.777Z,68.07
2019-03-30T02:10:43.909Z,65.57
2019-03-30T02:13:17.038Z,65.13
2019-03-30T02:15:49.269Z,66.20
2019-03-30T02:18:21.453Z,61.10
2019-03-30T02:20:53.583Z,72.67
2019-03-30T02:23:26.599Z,68.60
2019-03-30T02:25:58.673Z,68.73
2019-03-30T02:28:30.934Z,68.60
2019-03-30T02:31:02.997Z,64.27
2019-03-30T02:33:34.991Z,60.00
2019-03-30T02:36:10.443Z,59.63
2019-03-30T02:38:44.131Z,56.00
2019-03-30T02:41:16.325Z,54.97
2019-03-30T02:43:48.680Z,54.63
2019-03-30T02:46:21.281Z,56.07
2019-03-30T02:48:54.150Z,59.67
2019-03-30T02:51:27.044Z,63.40
2019-03-30T02:53:59.037Z,63.47
2019-03-30T02:56:31.057Z,68.70
2019-03-30T02:59:03.227Z,64.30
2019-03-30T03:01:35.313Z,53.17
2019-03-30T03:04:07.432Z,54.57
2019-03-30T03:06:39.554Z,49.97
2019-03-30T03:09:11.810Z,47.13
2019-03-30T03:11:43.767Z,47.17
2019-03-30T03:14:15.789Z,42.20
2019-03-30T03:16:47.767Z,40.97
2019-03-30T03:19:19.773Z,40.07
2019-03-30T03:21:51.770Z,46.37
2019-03-30T03:24:23.839Z,43.60
2019-03-30T03:26:56.783Z,41.03
2019-03-30T03:29:28.789Z,37.20
2019-03-30T03:32:01.107Z,35.63
2019-03-30T03:34:33.094Z,36.80
2019-03-30T03:37:05.183Z,34.73
2019-03-30T03:39:38.021Z,36.23
2019-03-30T03:42:10.552Z,35.77
2019-03-30T03:44:46.389Z,31.27
2019-03-30T03:47:18.402Z,33.27
2019-03-30T03:49:50.418Z,30.50
2019-03-30T03:52:22.681Z,33.97
2019-03-30T03:54:56.671Z,36.63
2019-03-30T03:57:33.280Z,36.40
2019-03-30T04:00:08.721Z,36.90
2019-03-30T04:02:41.829Z,38.20
2019-03-30T04:05:13.945Z,33.20
2019-03-30T04:07:49.373Z,35.67
2019-03-30T04:10:23.691Z,35.17
2019-03-30T04:12:59.675Z,41.83
2019-03-30T04:15:31.672Z,39.23
2019-03-30T04:18:03.978Z,40.23
2019-03-30T04:20:35.955Z,43.37
2019-03-30T04:23:07.975Z,39.73
2019-03-30T04:25:42.652Z,40.33
2019-03-30T04:28:14.755Z,40.73
2019-03-30T04:30:46.727Z,39.87
2019-03-30T04:33:18.778Z,39.53
2019-03-30T04:35:50.855Z,38.97
2019-03-30T04:38:22.836Z,39.43
2019-03-30T04:40:54.826Z,47.40
2019-03-30T04:43:29.195Z,42.20
2019-03-30T04:46:01.480Z,40.20
2019-03-30T04:48:33.476Z,34.27
2019-03-30T04:51:05.427Z,37.53
2019-03-30T04:53:37.402Z,36.30
2019-03-30T04:56:09.461Z,34.27
2019-03-30T04:58:41.610Z,39.40
2019-03-30T05:01:13.587Z,57.37
2019-03-30T05:03:45.670Z,96.07
2019-03-30T05:06:18.040Z,97.23
2019-03-30T05:08:50.134Z,140.90
2019-03-30T05:11:22.723Z,142.00
2019-03-30T05:13:56.321Z,158.97
2019-03-30T05:16:29.683Z,191.00
2019-03-30T05:19:01.854Z,154.30
2019-03-30T05:21:33.817Z,192.17
2019-03-30T05:24:05.966Z,183.87
2019-03-30T05:26:38.681Z,190.40
2019-03-30T05:29:10.684Z,177.43
2019-03-30T05:31:42.877Z,148.40
2019-03-30T05:34:14.864Z,99.33
2019-03-30T05:36:46.836Z,126.47
2019-03-30T05:39:18.884Z,131.10
2019-03-30T05:41:50.970Z,131.93
2019-03-30T05:44:22.948Z,69.53
2019-03-30T05:46:54.975Z,46.93
2019-03-30T05:49:26.952Z,41.53
2019-03-30T05:51:59.106Z,46.87
2019-03-30T05:54:31.069Z,29.33
2019-03-30T05:57:03.041Z,22.53
2019-03-30T05:59:35.008Z,25.93
2019-03-30T06:02:07.753Z,28.17
2019-03-30T06:04:39.750Z,30.13
2019-03-30T06:07:11.714Z,37.03
2019-03-30T06:09:45.627Z,28.90
2019-03-30T06:12:17.589Z,26.27
2019-03-30T06:14:49.627Z,27.17
2019-03-30T06:17:21.627Z,31.00
2019-03-30T06:19:53.610Z,27.60
2019-03-30T06:22:39.465Z,25.57
2019-03-30T06:24:59.338Z,25.37
2019-03-30T06:27:31.637Z,25.70
2019-03-30T06:30:22.755Z,25.03
2019-03-30T06:32:54.865Z,26.33
2019-03-30T06:35:26.855Z,23.03
2019-03-30T06:37:59.395Z,28.27
2019-03-30T06:40:31.967Z,24.77
2019-03-30T06:43:07.578Z,25.53
2019-03-30T06:45:38.908Z,23.30
2019-03-30T06:48:11.170Z,25.80
2019-03-30T06:50:43.964Z,28.20
2019-03-30T06:53:16.606Z,25.53
2019-03-30T06:55:49.180Z,27.63
2019-03-30T06:58:21.594Z,26.80
2019-03-30T07:00:54.681Z,25.40
2019-03-30T07:03:27.133Z,30.07
2019-03-30T07:06:00.917Z,27.40
2019-03-30T07:08:39.614Z,26.60
2019-03-30T07:11:21.105Z,29.40
2019-03-30T07:13:50.157Z,32.67
2019-03-30T07:16:22.522Z,31.53
2019-03-30T07:18:55.312Z,35.40
2019-03-30T07:21:27.263Z,36.10
2019-03-30T07:24:02.846Z,36.97
2019-03-30T07:26:35.808Z,37.03
2019-03-30T07:32:03.916Z,40.00
2019-03-30T07:34:37.724Z,41.37
2019-03-30T07:37:11.286Z,39.27
2019-03-30T07:39:43.352Z,42.57
2019-03-30T07:42:15.555Z,44.10
2019-03-30T07:44:48.618Z,44.53
2019-03-30T07:47:20.577Z,45.97
2019-03-30T07:50:00.702Z,44.90
2019-03-30T07:52:32.700Z,42.27
2019-03-30T07:55:05.987Z,43.77
2019-03-30T07:57:39.804Z,45.50
2019-03-30T08:00:12.076Z,45.73
2019-03-30T08:02:44.133Z,44.43
2019-03-30T08:05:16.596Z,43.47
2019-03-30T08:07:49.008Z,46.60
2019-03-30T08:10:22.817Z,51.87
2019-03-30T08:12:57.908Z,46.63
2019-03-30T08:15:31.507Z,44.40
2019-03-30T08:18:05.718Z,49.30
2019-03-30T08:20:52.888Z,45.47
2019-03-30T08:23:24.914Z,46.23
2019-03-30T08:25:57.262Z,43.73
2019-03-30T08:28:29.383Z,47.07
2019-03-30T08:31:02.970Z,42.57
2019-03-30T08:33:40.880Z,42.77
2019-03-30T08:36:15.593Z,41.60
2019-03-30T08:38:47.867Z,46.50
2019-03-30T08:41:20.008Z,44.93
2019-03-30T08:43:52.401Z,43.43
2019-03-30T08:46:24.533Z,41.70
2019-03-30T08:48:56.551Z,40.80
2019-03-30T08:51:30.025Z,51.37
2019-03-30T08:54:02.601Z,41.37
2019-03-30T08:56:35.209Z,48.93
2019-03-30T08:59:07.255Z,47.57
2019-03-30T09:01:39.316Z,45.63
2019-03-30T09:04:11.378Z,44.53
2019-03-30T09:06:43.924Z,45.47
2019-03-30T09:09:15.952Z,45.97
2019-03-30T09:11:48.092Z,46.67
2019-03-30T09:14:20.263Z,43.83
2019-03-30T09:16:55.500Z,50.77
2019-03-30T09:19:27.530Z,44.50
2019-03-30T09:22:01.303Z,47.17
2019-03-30T09:24:34.883Z,46.73
2019-03-30T09:27:07.464Z,50.23
2019-03-30T09:29:39.629Z,47.53
2019-03-30T09:32:14.582Z,51.73
2019-03-30T09:34:46.395Z,51.37
2019-03-30T09:37:18.564Z,51.33
2019-03-30T09:39:50.618Z,54.33
2019-03-30T09:42:22.685Z,47.97
2019-03-30T09:44:55.087Z,49.03
2019-03-30T09:47:27.141Z,50.77
2019-03-30T09:50:02.247Z,47.03
2019-03-30T09:52:32.900Z,55.73
2019-03-30T09:55:07.635Z,47.57
2019-03-30T09:57:39.718Z,50.47
2019-03-30T10:00:16.962Z,46.03
2019-03-30T10:02:49.036Z,48.83
2019-03-30T10:05:21.140Z,47.43
2019-03-30T10:07:53.503Z,54.27
2019-03-30T10:10:25.841Z,49.57
2019-03-30T10:12:57.904Z,55.33
2019-03-30T10:15:29.870Z,50.27
2019-03-30T10:18:01.859Z,48.73
2019-03-30T10:20:33.910Z,51.03
2019-03-30T10:23:06.412Z,47.73
2019-03-30T10:25:38.695Z,46.43
2019-03-30T10:28:10.739Z,48.17
2019-03-30T10:30:42.877Z,45.60
2019-03-30T10:33:15.607Z,42.73
2019-03-30T10:35:47.635Z,42.83
2019-03-30T10:38:19.805Z,36.67
2019-03-30T10:40:52.726Z,41.40
2019-03-30T10:43:24.764Z,40.60
2019-03-30T10:45:57.076Z,41.77
2019-03-30T10:48:29.212Z,41.57
2019-03-30T10:51:01.579Z,46.20
2019-03-30T10:53:33.855Z,42.30
2019-03-30T10:56:05.957Z,39.27
2019-03-30T10:58:38.915Z,45.37
2019-03-30T11:01:10.953Z,45.40
2019-03-30T11:03:43.036Z,36.83
2019-03-30T11:06:17.156Z,36.10
2019-03-30T11:08:49.619Z,36.73
2019-03-30T11:11:22.065Z,37.53
2019-03-30T11:13:54.451Z,37.03
2019-03-30T11:16:27.002Z,32.43
2019-03-30T11:18:59.082Z,38.33
2019-03-30T11:21:37.256Z,37.17
2019-03-30T11:24:09.446Z,38.13
2019-03-30T11:26:41.409Z,35.87
2019-03-30T11:29:13.381Z,34.13
2019-03-30T11:31:46.023Z,34.67
2019-03-30T11:34:25.689Z,29.07
2019-03-30T11:36:57.146Z,24.63
2019-03-30T11:39:29.208Z,26.60
2019-03-30T11:42:01.281Z,20.73
2019-03-30T11:44:33.596Z,16.70
2019-03-30T11:47:05.619Z,19.53
2019-03-30T11:52:36.175Z,17.33
2019-03-30T11:55:21.135Z,20.30
2019-03-30T11:57:43.454Z,17.03
2019-03-30T12:00:16.272Z,17.63
2019-03-30T12:02:50.063Z,18.87
2019-03-30T12:05:22.420Z,16.30
2019-03-30T12:07:54.483Z,14.83
2019-03-30T12:10:26.810Z,15.73
2019-03-30T12:12:59.098Z,14.73
2019-03-30T12:15:31.168Z,16.13
2019-03-30T12:18:03.177Z,18.83
2019-03-30T12:20:38.877Z,16.10
2019-03-30T12:23:11.233Z,14.13
2019-03-30T12:25:43.806Z,12.67
2019-03-30T12:28:16.132Z,14.30
2019-03-30T12:30:48.135Z,15.37
2019-03-30T12:33:20.204Z,14.03
2019-03-30T12:35:52.196Z,13.97
2019-03-30T12:38:24.315Z,14.97
2019-03-30T12:40:56.647Z,15.47
2019-03-30T12:43:28.788Z,19.23
2019-03-30T12:46:00.787Z,114.83
2019-03-30T12:48:33.844Z,29.67
2019-03-30T12:51:06.834Z,27.63
2019-03-30T12:53:49.632Z,32.93
2019-03-30T12:56:12.672Z,42.20
2019-03-30T12:58:45.049Z,21.77
2019-03-30T13:01:17.777Z,18.83
2019-03-30T13:03:51.195Z,20.73
2019-03-30T13:06:23.555Z,20.63
2019-03-30T13:08:56.104Z,21.27
2019-03-30T13:11:28.261Z,21.50
2019-03-30T13:14:00.441Z,19.27
2019-03-30T13:16:34.825Z,21.13
2019-03-30T13:19:07.053Z,21.07
2019-03-30T13:21:52.088Z,17.90
2019-03-30T13:24:13.100Z,19.90
2019-03-30T13:26:45.195Z,19.77
2019-03-30T13:29:17.342Z,20.60
2019-03-30T13:31:49.450Z,21.07
2019-03-30T13:34:21.502Z,21.03
2019-03-30T13:36:53.465Z,17.10
2019-03-30T13:39:25.630Z,15.67
2019-03-30T13:41:57.710Z,15.10
2019-03-30T13:44:30.210Z,21.53
2019-03-30T13:47:02.745Z,18.17
2019-03-30T13:49:34.724Z,14.93
2019-03-30T13:52:06.763Z,16.77
2019-03-30T13:54:39.163Z,15.17
2019-03-30T13:57:11.752Z,12.47
2019-03-30T13:59:44.710Z,12.87
2019-03-30T14:02:16.692Z,13.00
2019-03-30T14:04:52.051Z,13.17
2019-03-30T14:07:22.853Z,15.50
2019-03-30T14:09:55.533Z,11.60
2019-03-30T14:12:29.927Z,14.20
2019-03-30T14:15:04.587Z,15.57
2019-03-30T14:17:37.590Z,16.87
2019-03-30T14:20:10.383Z,15.43
2019-03-30T14:22:42.495Z,15.40
2019-03-30T14:25:15.293Z,15.63
2019-03-30T14:27:48.935Z,12.67
2019-03-30T14:30:21.288Z,20.17
2019-03-30T14:32:53.329Z,16.03
2019-03-30T14:35:25.980Z,16.03
2019-03-30T14:37:58.322Z,16.70
2019-03-30T14:40:30.530Z,15.43
2019-03-30T14:43:02.570Z,15.57
2019-03-30T14:45:34.768Z,15.37
2019-03-30T14:48:07.622Z,14.30
2019-03-30T14:50:39.692Z,15.67
2019-03-30T14:53:11.909Z,15.87
2019-03-30T14:55:44.073Z,16.87
2019-03-30T14:58:16.472Z,17.33
2019-03-30T15:00:49.042Z,19.63
2019-03-30T15:03:21.195Z,27.03
2019-03-30T15:05:53.354Z,29.83
2019-03-30T15:08:26.551Z,30.20
2019-03-30T15:10:59.249Z,28.77
2019-03-30T15:13:34.314Z,32.27
2019-03-30T15:16:06.678Z,33.60
2019-03-30T15:18:39.061Z,30.20
2019-03-30T15:21:11.093Z,31.43
2019-03-30T15:23:43.108Z,30.30
2019-03-30T15:26:15.181Z,30.57
2019-03-30T15:28:47.327Z,33.03
2019-03-30T15:31:19.446Z,28.53
2019-03-30T15:33:53.346Z,29.67
2019-03-30T15:36:25.572Z,29.67
2019-03-30T15:38:58.036Z,30.57
2019-03-30T15:41:30.553Z,32.23
2019-03-30T15:44:02.683Z,36.30
2019-03-30T15:46:36.643Z,37.97
2019-03-30T15:49:09.831Z,33.50
2019-03-30T15:51:42.108Z,32.03
2019-03-30T15:54:14.254Z,34.30
2019-03-30T15:56:46.549Z,30.73
2019-03-30T15:59:18.580Z,36.40
2019-03-30T16:01:54.401Z,33.70
2019-03-30T16:04:26.825Z,34.20
2019-03-30T16:06:59.132Z,32.77
2019-03-30T16:09:31.208Z,32.43
2019-03-30T16:12:09.200Z,34.70
2019-03-30T16:14:57.344Z,37.10
2019-03-30T16:17:30.737Z,38.53
2019-03-30T16:20:03.389Z,38.17
2019-03-30T16:22:35.939Z,38.87
2019-03-30T16:25:08.514Z,35.53
2019-03-30T16:27:41.947Z,40.20
2019-03-30T16:30:14.565Z,39.57
2019-03-30T16:32:46.685Z,39.57
2019-03-30T16:35:19.610Z,38.80
2019-03-30T16:37:51.678Z,41.47
2019-03-30T16:40:23.738Z,40.57
2019-03-30T16:42:56.079Z,38.67
2019-03-30T16:45:28.181Z,42.10
2019-03-30T16:48:04.620Z,39.43
2019-03-30T16:50:37.068Z,40.70
2019-03-30T16:53:09.278Z,41.53
2019-03-30T16:55:42.082Z,40.43
2019-03-30T16:58:14.785Z,40.23
2019-03-30T17:00:56.249Z,45.00
2019-03-30T17:03:20.849Z,41.10
2019-03-30T17:05:53.228Z,45.43
2019-03-30T17:08:25.609Z,41.03
2019-03-30T17:10:57.704Z,38.93
2019-03-30T17:13:30.040Z,39.47
2019-03-30T17:16:02.751Z,39.63
2019-03-30T17:18:34.755Z,46.30
2019-03-30T17:21:09.005Z,44.60
2019-03-30T17:23:41.934Z,42.70
2019-03-30T17:26:15.699Z,48.47
2019-03-30T17:28:48.304Z,44.33
2019-03-30T17:31:20.665Z,46.97
2019-03-30T17:33:52.799Z,46.50
2019-03-30T17:36:25.203Z,47.50
2019-03-30T17:39:00.067Z,48.03
2019-03-30T17:41:32.246Z,44.33
2019-03-30T17:44:04.781Z,45.13
2019-03-30T17:46:37.704Z,41.60
2019-03-30T17:49:09.801Z,41.73
2019-03-30T17:51:41.813Z,43.87
2019-03-30T17:54:15.437Z,42.37
2019-03-30T17:56:50.278Z,40.53
2019-03-30T17:59:23.777Z,43.97
2019-03-30T18:01:56.075Z,41.37
2019-03-30T18:04:28.629Z,41.83
2019-03-30T18:07:00.678Z,41.70
2019-03-30T18:09:32.725Z,46.13
2019-03-30T18:12:04.763Z,39.53
2019-03-30T18:14:36.792Z,47.53
2019-03-30T18:17:08.791Z,43.47
2019-03-30T18:19:42.331Z,43.93
2019-03-30T18:22:15.452Z,41.77
2019-03-30T18:24:47.961Z,43.80
2019-03-30T18:27:19.971Z,48.40
2019-03-30T18:29:52.167Z,43.77
2019-03-30T18:32:24.926Z,48.13
2019-03-30T18:34:58.031Z,46.03
2019-03-30T18:37:30.642Z,48.37
2019-03-30T18:40:03.194Z,47.13
2019-03-30T18:42:36.674Z,46.70
2019-03-30T18:45:12.092Z,47.97
2019-03-30T18:47:45.109Z,49.93
2019-03-30T18:50:18.234Z,50.27
2019-03-30T18:52:51.181Z,46.73
2019-03-30T18:55:25.946Z,49.43
2019-03-30T18:57:57.977Z,49.63
2019-03-30T19:00:30.049Z,49.47
2019-03-30T19:03:02.114Z,54.00
2019-03-30T19:05:34.385Z,53.63
2019-03-30T19:08:06.452Z,54.13
2019-03-30T19:10:38.531Z,55.23
2019-03-30T19:13:10.584Z,56.67
2019-03-30T19:15:42.970Z,52.17
2019-03-30T19:18:15.197Z,57.87
2019-03-30T19:20:47.297Z,57.83
2019-03-30T19:23:19.660Z,58.03
2019-03-30T19:25:51.908Z,63.43
2019-03-30T19:28:24.261Z,69.67
2019-03-30T19:30:56.638Z,60.87
2019-03-30T19:33:28.673Z,56.10
2019-03-30T19:36:00.753Z,62.93
2019-03-30T19:38:33.329Z,63.00
2019-03-30T19:41:05.612Z,64.77
2019-03-30T19:43:38.330Z,62.63
2019-03-30T19:46:13.364Z,63.47
2019-03-30T19:48:45.444Z,67.03
2019-03-30T19:51:17.722Z,61.10
2019-03-30T19:53:50.239Z,63.80
2019-03-30T19:56:22.267Z,60.73
2019-03-30T19:58:54.258Z,65.03
2019-03-30T20:01:26.389Z,62.00
2019-03-30T20:03:58.427Z,59.13
2019-03-30T20:06:30.772Z,61.43
2019-03-30T20:09:05.363Z,60.93
2019-03-30T20:11:38.334Z,60.37
2019-03-30T20:14:10.836Z,65.07
2019-03-30T20:16:43.002Z,67.50
2019-03-30T20:19:15.180Z,63.67
2019-03-30T20:21:47.427Z,66.43
2019-03-30T20:24:20.266Z,64.17
2019-03-30T20:26:52.302Z,64.07
2019-03-30T20:29:26.722Z,64.83
2019-03-30T20:32:04.852Z,62.60
2019-03-30T20:34:37.843Z,63.50
2019-03-30T20:37:11.567Z,69.80
2019-03-30T20:39:43.848Z,64.90
2019-03-30T20:42:19.585Z,62.20
2019-03-30T20:44:53.395Z,67.00
2019-03-30T20:47:28.465Z,73.83
2019-03-30T20:50:02.680Z,78.17
2019-03-30T20:52:34.956Z,85.63
2019-03-30T20:55:09.291Z,85.50
2019-03-30T20:57:41.445Z,83.13
2019-03-30T21:00:16.903Z,89.50
2019-03-30T21:02:50.247Z,91.70
2019-03-30T21:05:23.773Z,88.07
2019-03-30T21:07:55.845Z,96.77
2019-03-30T21:10:31.855Z,93.73
2019-03-30T21:13:05.500Z,94.93
2019-03-30T21:15:39.383Z,95.77
2019-03-30T21:18:12.889Z,101.10
2019-03-30T21:20:48.447Z,99.30
2019-03-30T21:23:25.462Z,105.53
2019-03-30T21:25:59.725Z,108.80
2019-03-30T21:28:32.352Z,103.03
2019-03-30T21:31:04.523Z,104.67
2019-03-30T21:33:36.612Z,106.83
2019-03-30T21:36:11.500Z,103.80
2019-03-30T21:38:47.750Z,113.80
2019-03-30T21:41:21.952Z,107.37
2019-03-30T21:43:55.700Z,105.40
2019-03-30T21:46:32.589Z,106.43
2019-03-30T21:49:05.764Z,120.47
2019-03-30T21:51:42.576Z,116.80
2019-03-30T21:54:14.817Z,115.80
2019-03-30T21:56:46.862Z,116.80
2019-03-30T21:59:19.022Z,113.73
2019-03-30T22:01:51.106Z,113.07
2019-03-30T22:04:23.474Z,118.10
2019-03-30T22:07:03.623Z,123.83
2019-03-30T22:09:39.729Z,123.00
2019-03-30T22:12:11.791Z,113.93
2019-03-30T22:14:45.198Z,117.00
2019-03-30T22:17:17.222Z,119.83
2019-03-30T22:19:49.253Z,117.00
2019-03-30T22:22:21.353Z,117.50
2019-03-30T22:24:53.465Z,115.63
2019-03-30T22:27:25.485Z,119.10
2019-03-30T22:29:57.534Z,118.70
2019-03-30T22:32:30.471Z,120.00
2019-03-30T22:35:02.491Z,116.40
2019-03-30T22:37:34.680Z,115.43
2019-03-30T22:40:10.057Z,110.67
2019-03-30T22:42:43.707Z,119.17
2019-03-30T22:45:16.214Z,116.97
2019-03-30T22:47:48.810Z,116.23
2019-03-30T22:50:20.943Z,126.07
2019-03-30T22:52:55.647Z,133.23
2019-03-30T22:55:29.889Z,119.37
2019-03-30T22:58:02.108Z,109.90
2019-03-30T23:00:39.087Z,118.73
2019-03-30T23:03:11.714Z,116.80
2019-03-30T23:05:45.431Z,112.83
2019-03-30T23:08:17.607Z,116.37
2019-03-30T23:10:49.693Z,116.30
2019-03-30T23:13:21.714Z,116.13
2019-03-30T23:15:53.827Z,121.07
2019-03-30T23:18:26.149Z,113.90
2019-03-30T23:20:58.208Z,102.87
2019-03-30T23:23:30.332Z,119.77
2019-03-30T23:26:02.677Z,105.27
2019-03-30T23:28:34.823Z,98.53
2019-03-30T23:31:08.908Z,113.67
2019-03-30T23:33:41.341Z,103.63
2019-03-30T23:36:16.141Z,112.63
2019-03-30T23:38:47.641Z,114.43
2019-03-30T23:41:19.735Z,108.17
2019-03-30T23:43:51.938Z,99.37
2019-03-30T23:46:24.114Z,103.80
2019-03-30T23:48:56.513Z,102.77
2019-03-30T23:51:28.846Z,97.37
2019-03-30T23:54:02.676Z,102.57
2019-03-30T23:56:34.999Z,98.73
2019-03-30T23:59:07.102Z,91.70
